LHER weather

Eger Apollo Airfield
Eger, Heves, Hungary

Public forecast

Using degrees Celsius for public forecast. Weather courtesy of forecast.io.

Closest aviation weather report (METAR) to Eger Apollo Airfield

Report is more than 6 hours old.

Closest report is Luńćenec Airport, 37.4 nm (69.3 km) NW. Retrieved 2013/03/14 11:10 UTC (7 years ago):

LZLU 141110Z AUTO 08009KT //// ////// 02/01 Q0994

Closest aviation forecast (TAF) to Eger Apollo Airfield

Forecast is more than 12 hours old.

Closest forecast is Szolnok Air Base, 47.5 nm (87.9 km) S. Retrieved 2016/06/17 03:24 UTC (3 years ago):

TAF TAF LHSN 170215Z 1703/1715 17009KT CAVOK BECMG 1707/1710 24015G25KT